sensor_id;sensor_type;location;lat;lon;timestamp;temperature;humidity
5218;DHT22;26539;51.064;6.346;2022-09-02T00:01:38;19.40;26.40
5218;DHT22;26539;51.064;6.346;2022-09-02T00:04:07;19.40;26.10
5218;DHT22;26539;51.064;6.346;2022-09-02T00:06:34;19.40;26.00
5218;DHT22;26539;51.064;6.346;2022-09-02T00:09:02;19.30;27.00
5218;DHT22;26539;51.064;6.346;2022-09-02T00:11:30;19.30;26.60
5218;DHT22;26539;51.064;6.346;2022-09-02T00:13:57;19.30;26.70
5218;DHT22;26539;51.064;6.346;2022-09-02T00:16:23;19.20;27.30
5218;DHT22;26539;51.064;6.346;2022-09-02T00:18:50;19.20;27.50
5218;DHT22;26539;51.064;6.346;2022-09-02T00:21:17;19.20;27.90
5218;DHT22;26539;51.064;6.346;2022-09-02T00:23:43;19.10;28.00
5218;DHT22;26539;51.064;6.346;2022-09-02T00:26:10;19.10;28.50
5218;DHT22;26539;51.064;6.346;2022-09-02T00:28:37;19.00;28.50
5218;DHT22;26539;51.064;6.346;2022-09-02T00:31:03;19.00;28.70
5218;DHT22;26539;51.064;6.346;2022-09-02T00:33:29;19.00;28.90
5218;DHT22;26539;51.064;6.346;2022-09-02T00:36:00;18.90;41.60
5218;DHT22;26539;51.064;6.346;2022-09-02T00:38:27;18.90;29.80
5218;DHT22;26539;51.064;6.346;2022-09-02T00:40:53;18.80;30.00
5218;DHT22;26539;51.064;6.346;2022-09-02T00:43:24;18.80;29.60
5218;DHT22;26539;51.064;6.346;2022-09-02T00:45:51;18.80;29.80
5218;DHT22;26539;51.064;6.346;2022-09-02T00:48:18;18.80;30.00
5218;DHT22;26539;51.064;6.346;2022-09-02T00:50:43;18.70;30.30
5218;DHT22;26539;51.064;6.346;2022-09-02T00:53:10;18.70;30.50
5218;DHT22;26539;51.064;6.346;2022-09-02T00:55:42;18.70;30.80
5218;DHT22;26539;51.064;6.346;2022-09-02T00:58:19;18.70;30.00
5218;DHT22;26539;51.064;6.346;2022-09-02T01:00:46;18.70;30.50
5218;DHT22;26539;51.064;6.346;2022-09-02T01:03:18;18.70;31.20
5218;DHT22;26539;51.064;6.346;2022-09-02T01:05:46;18.60;32.40
5218;DHT22;26539;51.064;6.346;2022-09-02T01:08:16;18.60;31.90
5218;DHT22;26539;51.064;6.346;2022-09-02T01:10:44;18.60;33.30
5218;DHT22;26539;51.064;6.346;2022-09-02T01:13:15;18.60;33.00
5218;DHT22;26539;51.064;6.346;2022-09-02T01:15:45;18.50;33.30
5218;DHT22;26539;51.064;6.346;2022-09-02T01:18:16;18.50;33.60
5218;DHT22;26539;51.064;6.346;2022-09-02T01:20:42;18.50;34.40
5218;DHT22;26539;51.064;6.346;2022-09-02T01:23:08;18.50;34.10
5218;DHT22;26539;51.064;6.346;2022-09-02T01:25:34;18.50;35.30
5218;DHT22;26539;51.064;6.346;2022-09-02T01:28:04;18.40;35.50
5218;DHT22;26539;51.064;6.346;2022-09-02T01:30:31;18.40;35.70
5218;DHT22;26539;51.064;6.346;2022-09-02T01:32:57;18.40;36.40
5218;DHT22;26539;51.064;6.346;2022-09-02T01:35:23;18.40;36.40
5218;DHT22;26539;51.064;6.346;2022-09-02T01:37:48;18.40;36.60
5218;DHT22;26539;51.064;6.346;2022-09-02T01:40:17;18.40;37.00
5218;DHT22;26539;51.064;6.346;2022-09-02T01:42:44;18.30;38.10
5218;DHT22;26539;51.064;6.346;2022-09-02T01:45:10;18.30;38.30
5218;DHT22;26539;51.064;6.346;2022-09-02T01:47:36;18.30;51.10
5218;DHT22;26539;51.064;6.346;2022-09-02T01:50:06;18.30;39.30
5218;DHT22;26539;51.064;6.346;2022-09-02T01:52:33;18.30;39.40
5218;DHT22;26539;51.064;6.346;2022-09-02T01:54:59;18.20;40.30
5218;DHT22;26539;51.064;6.346;2022-09-02T01:57:24;18.20;40.30
5218;DHT22;26539;51.064;6.346;2022-09-02T01:59:51;18.20;40.70
5218;DHT22;26539;51.064;6.346;2022-09-02T02:02:17;18.20;41.40
5218;DHT22;26539;51.064;6.346;2022-09-02T02:04:43;18.20;41.90
5218;DHT22;26539;51.064;6.346;2022-09-02T02:07:09;18.20;42.30
5218;DHT22;26539;51.064;6.346;2022-09-02T02:09:35;18.10;43.50
5218;DHT22;26539;51.064;6.346;2022-09-02T02:12:00;18.20;44.10
5218;DHT22;26539;51.064;6.346;2022-09-02T02:14:26;18.10;44.30
5218;DHT22;26539;51.064;6.346;2022-09-02T02:16:51;18.10;45.20
5218;DHT22;26539;51.064;6.346;2022-09-02T02:19:17;18.10;45.50
5218;DHT22;26539;51.064;6.346;2022-09-02T02:21:42;18.10;45.20
5218;DHT22;26539;51.064;6.346;2022-09-02T02:24:08;18.10;45.80
5218;DHT22;26539;51.064;6.346;2022-09-02T02:26:35;18.00;46.50
5218;DHT22;26539;51.064;6.346;2022-09-02T02:29:01;18.00;47.00
5218;DHT22;26539;51.064;6.346;2022-09-02T02:31:27;18.00;48.80
5218;DHT22;26539;51.064;6.346;2022-09-02T02:33:52;18.00;60.60
5218;DHT22;26539;51.064;6.346;2022-09-02T02:36:18;18.00;49.00
5218;DHT22;26539;51.064;6.346;2022-09-02T02:38:44;17.90;50.50
5218;DHT22;26539;51.064;6.346;2022-09-02T02:41:12;17.90;50.10
5218;DHT22;26539;51.064;6.346;2022-09-02T02:43:38;17.90;50.20
5218;DHT22;26539;51.064;6.346;2022-09-02T02:46:06;17.90;51.80
5218;DHT22;26539;51.064;6.346;2022-09-02T02:48:36;17.90;51.70
5218;DHT22;26539;51.064;6.346;2022-09-02T02:51:03;17.80;51.90
5218;DHT22;26539;51.064;6.346;2022-09-02T02:53:29;17.80;52.90
5218;DHT22;26539;51.064;6.346;2022-09-02T02:55:56;17.80;52.90
5218;DHT22;26539;51.064;6.346;2022-09-02T02:58:22;17.80;54.00
5218;DHT22;26539;51.064;6.346;2022-09-02T03:00:48;17.80;53.70
5218;DHT22;26539;51.064;6.346;2022-09-02T03:03:14;17.80;53.90
5218;DHT22;26539;51.064;6.346;2022-09-02T03:05:45;17.80;54.20
5218;DHT22;26539;51.064;6.346;2022-09-02T03:08:11;17.80;54.40
5218;DHT22;26539;51.064;6.346;2022-09-02T03:10:38;17.80;54.00
5218;DHT22;26539;51.064;6.346;2022-09-02T03:13:07;17.80;55.50
5218;DHT22;26539;51.064;6.346;2022-09-02T03:15:35;17.80;55.60
5218;DHT22;26539;51.064;6.346;2022-09-02T03:18:01;17.90;55.00
5218;DHT22;26539;51.064;6.346;2022-09-02T03:20:27;17.90;54.60
5218;DHT22;26539;51.064;6.346;2022-09-02T03:22:55;17.90;55.20
5218;DHT22;26539;51.064;6.346;2022-09-02T03:25:22;17.90;55.30
5218;DHT22;26539;51.064;6.346;2022-09-02T03:27:48;17.90;59.50
5218;DHT22;26539;51.064;6.346;2022-09-02T03:30:18;17.90;55.30
5218;DHT22;26539;51.064;6.346;2022-09-02T03:32:44;18.00;55.20
5218;DHT22;26539;51.064;6.346;2022-09-02T03:35:13;18.00;55.90
5218;DHT22;26539;51.064;6.346;2022-09-02T03:37:39;17.90;56.10
5218;DHT22;26539;51.064;6.346;2022-09-02T03:40:07;17.90;56.20
5218;DHT22;26539;51.064;6.346;2022-09-02T03:42:33;18.00;56.20
5218;DHT22;26539;51.064;6.346;2022-09-02T03:44:58;17.90;56.60
5218;DHT22;26539;51.064;6.346;2022-09-02T03:47:24;17.90;56.60
5218;DHT22;26539;51.064;6.346;2022-09-02T03:49:50;17.90;56.80
5218;DHT22;26539;51.064;6.346;2022-09-02T03:52:16;17.90;57.10
5218;DHT22;26539;51.064;6.346;2022-09-02T03:54:41;17.90;58.00
5218;DHT22;26539;51.064;6.346;2022-09-02T03:57:07;17.90;58.30
5218;DHT22;26539;51.064;6.346;2022-09-02T03:59:33;17.90;59.20
5218;DHT22;26539;51.064;6.346;2022-09-02T04:02:00;17.90;58.90
5218;DHT22;26539;51.064;6.346;2022-09-02T04:04:27;17.80;59.20
5218;DHT22;26539;51.064;6.346;2022-09-02T04:06:53;17.80;59.10
5218;DHT22;26539;51.064;6.346;2022-09-02T04:09:18;17.80;59.20
5218;DHT22;26539;51.064;6.346;2022-09-02T04:11:44;17.80;60.00
5218;DHT22;26539;51.064;6.346;2022-09-02T04:14:10;17.80;61.00
5218;DHT22;26539;51.064;6.346;2022-09-02T04:16:36;17.80;60.00
5218;DHT22;26539;51.064;6.346;2022-09-02T04:19:02;17.70;60.20
5218;DHT22;26539;51.064;6.346;2022-09-02T04:21:32;17.70;60.60
5218;DHT22;26539;51.064;6.346;2022-09-02T04:23:57;17.70;60.80
5218;DHT22;26539;51.064;6.346;2022-09-02T04:26:23;17.70;62.00
5218;DHT22;26539;51.064;6.346;2022-09-02T04:28:49;17.60;62.30
5218;DHT22;26539;51.064;6.346;2022-09-02T04:31:18;17.60;62.30
5218;DHT22;26539;51.064;6.346;2022-09-02T04:33:44;17.60;63.70
5218;DHT22;26539;51.064;6.346;2022-09-02T04:36:14;17.50;64.00
5218;DHT22;26539;51.064;6.346;2022-09-02T04:38:40;17.50;65.20
5218;DHT22;26539;51.064;6.346;2022-09-02T04:41:08;17.50;65.40
5218;DHT22;26539;51.064;6.346;2022-09-02T04:43:37;17.50;65.80
5218;DHT22;26539;51.064;6.346;2022-09-02T04:46:08;17.50;68.70
5218;DHT22;26539;51.064;6.346;2022-09-02T04:48:34;17.50;68.20
5218;DHT22;26539;51.064;6.346;2022-09-02T04:51:05;17.50;69.20
5218;DHT22;26539;51.064;6.346;2022-09-02T04:53:31;17.50;69.40
5218;DHT22;26539;51.064;6.346;2022-09-02T04:55:57;17.50;69.50
5218;DHT22;26539;51.064;6.346;2022-09-02T04:58:23;17.50;70.30
5218;DHT22;26539;51.064;6.346;2022-09-02T05:00:48;17.50;70.20
5218;DHT22;26539;51.064;6.346;2022-09-02T05:03:14;17.50;71.40
5218;DHT22;26539;51.064;6.346;2022-09-02T05:05:40;17.50;72.50
5218;DHT22;26539;51.064;6.346;2022-09-02T05:08:05;17.50;73.10
5218;DHT22;26539;51.064;6.346;2022-09-02T05:10:31;17.60;73.30
5218;DHT22;26539;51.064;6.346;2022-09-02T05:12:57;17.60;75.10
5218;DHT22;26539;51.064;6.346;2022-09-02T05:15:23;17.60;75.20
5218;DHT22;26539;51.064;6.346;2022-09-02T05:17:49;17.70;75.20
5218;DHT22;26539;51.064;6.346;2022-09-02T05:20:15;17.80;75.50
5218;DHT22;26539;51.064;6.346;2022-09-02T05:22:40;17.90;74.70
5218;DHT22;26539;51.064;6.346;2022-09-02T05:25:08;18.00;75.50
5218;DHT22;26539;51.064;6.346;2022-09-02T05:27:34;18.10;74.90
5218;DHT22;26539;51.064;6.346;2022-09-02T05:30:00;18.20;75.50
5218;DHT22;26539;51.064;6.346;2022-09-02T05:32:27;18.30;74.90
5218;DHT22;26539;51.064;6.346;2022-09-02T05:34:53;18.50;75.80
5218;DHT22;26539;51.064;6.346;2022-09-02T05:37:20;18.60;73.80
5218;DHT22;26539;51.064;6.346;2022-09-02T05:39:46;18.70;73.10
5218;DHT22;26539;51.064;6.346;2022-09-02T05:44:38;21.20;63.30
5218;DHT22;26539;51.064;6.346;2022-09-02T05:47:04;22.50;73.90
5218;DHT22;26539;51.064;6.346;2022-09-02T05:49:30;22.00;65.50
5218;DHT22;26539;51.064;6.346;2022-09-02T05:51:58;21.90;63.20
5218;DHT22;26539;51.064;6.346;2022-09-02T05:54:27;24.00;69.90
5218;DHT22;26539;51.064;6.346;2022-09-02T05:56:59;27.80;78.00
5218;DHT22;26539;51.064;6.346;2022-09-02T05:59:26;31.10;80.30
5218;DHT22;26539;51.064;6.346;2022-09-02T06:01:53;33.30;77.20
5218;DHT22;26539;51.064;6.346;2022-09-02T06:04:20;34.50;68.20
5218;DHT22;26539;51.064;6.346;2022-09-02T06:06:47;32.70;52.20
5218;DHT22;26539;51.064;6.346;2022-09-02T06:09:14;30.90;43.30
5218;DHT22;26539;51.064;6.346;2022-09-02T06:11:41;28.70;34.40
5218;DHT22;26539;51.064;6.346;2022-09-02T06:14:15;26.90;28.10
5218;DHT22;26539;51.064;6.346;2022-09-02T06:16:42;25.40;25.40
5218;DHT22;26539;51.064;6.346;2022-09-02T06:19:08;24.50;23.60
5218;DHT22;26539;51.064;6.346;2022-09-02T06:21:35;23.80;23.20
5218;DHT22;26539;51.064;6.346;2022-09-02T06:24:04;24.20;25.60
5218;DHT22;26539;51.064;6.346;2022-09-02T06:26:30;24.30;25.50
5218;DHT22;26539;51.064;6.346;2022-09-02T06:28:56;24.20;25.80
5218;DHT22;26539;51.064;6.346;2022-09-02T06:31:22;24.50;27.40
5218;DHT22;26539;51.064;6.346;2022-09-02T06:33:51;24.70;27.20
5218;DHT22;26539;51.064;6.346;2022-09-02T06:36:18;25.80;29.20
5218;DHT22;26539;51.064;6.346;2022-09-02T06:38:46;28.70;35.70
5218;DHT22;26539;51.064;6.346;2022-09-02T06:41:15;32.60;42.80
5218;DHT22;26539;51.064;6.346;2022-09-02T06:43:41;35.80;44.30
5218;DHT22;26539;51.064;6.346;2022-09-02T06:46:07;37.90;40.20
5218;DHT22;26539;51.064;6.346;2022-09-02T06:48:38;39.60;34.40
5218;DHT22;26539;51.064;6.346;2022-09-02T06:51:04;41.30;28.30
5218;DHT22;26539;51.064;6.346;2022-09-02T06:53:29;42.50;23.80
5218;DHT22;26539;51.064;6.346;2022-09-02T06:55:55;43.50;19.60
5218;DHT22;26539;51.064;6.346;2022-09-02T06:58:20;43.90;16.50
5218;DHT22;26539;51.064;6.346;2022-09-02T07:00:46;44.10;11.30
5218;DHT22;26539;51.064;6.346;2022-09-02T07:03:12;44.30;7.90
5218;DHT22;26539;51.064;6.346;2022-09-02T07:06:08;45.10;5.20
5218;DHT22;26539;51.064;6.346;2022-09-02T07:08:39;46.40;2.50
5218;DHT22;26539;51.064;6.346;2022-09-02T07:11:06;47.30;1.00
5218;DHT22;26539;51.064;6.346;2022-09-02T07:13:33;47.70;1.00
5218;DHT22;26539;51.064;6.346;2022-09-02T07:15:59;47.20;1.00
5218;DHT22;26539;51.064;6.346;2022-09-02T07:18:25;46.70;1.00
5218;DHT22;26539;51.064;6.346;2022-09-02T07:20:51;45.40;1.00
5218;DHT22;26539;51.064;6.346;2022-09-02T07:23:17;43.30;1.00
5218;DHT22;26539;51.064;6.346;2022-09-02T07:25:43;41.10;1.00
5218;DHT22;26539;51.064;6.346;2022-09-02T07:28:09;41.50;1.00
5218;DHT22;26539;51.064;6.346;2022-09-02T07:30:36;43.50;1.00
5218;DHT22;26539;51.064;6.346;2022-09-02T07:33:03;44.90;1.00
5218;DHT22;26539;51.064;6.346;2022-09-02T07:35:29;45.80;1.00
5218;DHT22;26539;51.064;6.346;2022-09-02T07:37:55;46.40;1.00
5218;DHT22;26539;51.064;6.346;2022-09-02T07:40:21;46.80;1.00
5218;DHT22;26539;51.064;6.346;2022-09-02T07:42:47;47.10;1.00
5218;DHT22;26539;51.064;6.346;2022-09-02T07:45:14;47.10;1.00
5218;DHT22;26539;51.064;6.346;2022-09-02T07:47:40;47.20;1.00
5218;DHT22;26539;51.064;6.346;2022-09-02T07:50:05;46.70;1.00
5218;DHT22;26539;51.064;6.346;2022-09-02T07:52:31;46.90;1.00
5218;DHT22;26539;51.064;6.346;2022-09-02T07:54:57;45.70;1.00
5218;DHT22;26539;51.064;6.346;2022-09-02T07:57:25;45.70;1.00
5218;DHT22;26539;51.064;6.346;2022-09-02T07:59:51;45.90;1.00
5218;DHT22;26539;51.064;6.346;2022-09-02T08:02:17;45.40;1.00
5218;DHT22;26539;51.064;6.346;2022-09-02T08:04:43;44.80;1.00
5218;DHT22;26539;51.064;6.346;2022-09-02T08:07:09;44.70;1.00
5218;DHT22;26539;51.064;6.346;2022-09-02T08:09:35;44.80;1.00
5218;DHT22;26539;51.064;6.346;2022-09-02T08:12:01;45.00;1.00
5218;DHT22;26539;51.064;6.346;2022-09-02T08:14:27;46.00;1.00
5218;DHT22;26539;51.064;6.346;2022-09-02T08:16:57;46.40;1.00
5218;DHT22;26539;51.064;6.346;2022-09-02T08:19:23;46.30;1.00
5218;DHT22;26539;51.064;6.346;2022-09-02T08:21:50;46.50;1.00
5218;DHT22;26539;51.064;6.346;2022-09-02T08:24:15;46.60;1.00
5218;DHT22;26539;51.064;6.346;2022-09-02T08:26:41;47.00;1.00
5218;DHT22;26539;51.064;6.346;2022-09-02T08:29:07;46.60;1.00
5218;DHT22;26539;51.064;6.346;2022-09-02T08:31:35;46.40;1.00
5218;DHT22;26539;51.064;6.346;2022-09-02T08:34:01;46.40;1.00
5218;DHT22;26539;51.064;6.346;2022-09-02T08:36:27;46.30;1.00
5218;DHT22;26539;51.064;6.346;2022-09-02T08:38:53;46.20;1.00
5218;DHT22;26539;51.064;6.346;2022-09-02T08:43:59;46.40;1.00
5218;DHT22;26539;51.064;6.346;2022-09-02T08:46:27;46.60;1.00
5218;DHT22;26539;51.064;6.346;2022-09-02T08:49:03;47.10;1.00
5218;DHT22;26539;51.064;6.346;2022-09-02T08:51:48;47.30;1.00
5218;DHT22;26539;51.064;6.346;2022-09-02T08:56:45;46.70;1.00
5218;DHT22;26539;51.064;6.346;2022-09-02T08:59:20;46.50;1.00
5218;DHT22;26539;51.064;6.346;2022-09-02T09:01:51;46.70;1.00
5218;DHT22;26539;51.064;6.346;2022-09-02T09:13:01;47.10;1.00
5218;DHT22;26539;51.064;6.346;2022-09-02T09:18:15;46.50;1.00
5218;DHT22;26539;51.064;6.346;2022-09-02T09:20:42;46.70;1.00
5218;DHT22;26539;51.064;6.346;2022-09-02T09:23:20;46.70;1.00
5218;DHT22;26539;51.064;6.346;2022-09-02T09:25:51;46.40;1.00
5218;DHT22;26539;51.064;6.346;2022-09-02T09:28:19;46.20;1.00
5218;DHT22;26539;51.064;6.346;2022-09-02T09:30:45;45.80;1.00
5218;DHT22;26539;51.064;6.346;2022-09-02T09:33:14;45.40;1.00
5218;DHT22;26539;51.064;6.346;2022-09-02T09:35:50;44.80;1.00
5218;DHT22;26539;51.064;6.346;2022-09-02T09:38:31;44.10;1.00
5218;DHT22;26539;51.064;6.346;2022-09-02T09:41:18;43.90;1.00
5218;DHT22;26539;51.064;6.346;2022-09-02T09:43:44;44.20;1.00
5218;DHT22;26539;51.064;6.346;2022-09-02T09:46:39;44.00;1.00
5218;DHT22;26539;51.064;6.346;2022-09-02T09:49:05;43.60;1.00
5218;DHT22;26539;51.064;6.346;2022-09-02T09:51:30;43.00;1.00
5218;DHT22;26539;51.064;6.346;2022-09-02T09:54:14;42.60;1.00
5218;DHT22;26539;51.064;6.346;2022-09-02T09:56:40;42.60;1.00
5218;DHT22;26539;51.064;6.346;2022-09-02T09:59:07;42.20;1.00
5218;DHT22;26539;51.064;6.346;2022-09-02T10:01:34;42.20;1.00
5218;DHT22;26539;51.064;6.346;2022-09-02T10:04:10;42.50;1.00
5218;DHT22;26539;51.064;6.346;2022-09-02T10:06:42;42.60;1.00
5218;DHT22;26539;51.064;6.346;2022-09-02T10:14:22;42.50;1.00
5218;DHT22;26539;51.064;6.346;2022-09-02T10:20:13;42.50;1.00
5218;DHT22;26539;51.064;6.346;2022-09-02T10:22:54;42.30;1.00
5218;DHT22;26539;51.064;6.346;2022-09-02T10:25:33;42.30;1.00
5218;DHT22;26539;51.064;6.346;2022-09-02T10:33:48;42.70;1.00
5218;DHT22;26539;51.064;6.346;2022-09-02T10:36:33;42.80;1.00
5218;DHT22;26539;51.064;6.346;2022-09-02T10:39:38;42.70;1.00
5218;DHT22;26539;51.064;6.346;2022-09-02T10:42:24;42.30;1.00
5218;DHT22;26539;51.064;6.346;2022-09-02T10:47:36;41.10;1.00
5218;DHT22;26539;51.064;6.346;2022-09-02T10:58:18;40.70;1.00
5218;DHT22;26539;51.064;6.346;2022-09-02T11:00:48;40.70;1.00
5218;DHT22;26539;51.064;6.346;2022-09-02T11:03:32;40.90;1.00
5218;DHT22;26539;51.064;6.346;2022-09-02T11:06:14;41.10;1.00
5218;DHT22;26539;51.064;6.346;2022-09-02T11:11:29;40.60;1.00
5218;DHT22;26539;51.064;6.346;2022-09-02T11:16:59;41.00;1.00
5218;DHT22;26539;51.064;6.346;2022-09-02T11:19:54;41.30;1.00
5218;DHT22;26539;51.064;6.346;2022-09-02T11:25:11;41.20;1.00
5218;DHT22;26539;51.064;6.346;2022-09-02T11:27:42;41.00;1.00
5218;DHT22;26539;51.064;6.346;2022-09-02T11:30:21;40.60;1.00
5218;DHT22;26539;51.064;6.346;2022-09-02T11:33:09;40.20;1.00
5218;DHT22;26539;51.064;6.346;2022-09-02T11:35:37;39.90;1.00
5218;DHT22;26539;51.064;6.346;2022-09-02T11:38:09;39.80;1.00
5218;DHT22;26539;51.064;6.346;2022-09-02T11:43:50;39.60;1.00
5218;DHT22;26539;51.064;6.346;2022-09-02T11:46:35;39.60;1.00
5218;DHT22;26539;51.064;6.346;2022-09-02T11:54:41;40.80;1.00
5218;DHT22;26539;51.064;6.346;2022-09-02T11:57:19;41.00;1.00
5218;DHT22;26539;51.064;6.346;2022-09-02T12:02:42;40.20;1.00
5218;DHT22;26539;51.064;6.346;2022-09-02T12:13:09;40.60;1.00
5218;DHT22;26539;51.064;6.346;2022-09-02T12:15:37;40.80;1.00
5218;DHT22;26539;51.064;6.346;2022-09-02T12:18:13;41.00;1.00
5218;DHT22;26539;51.064;6.346;2022-09-02T12:31:49;39.20;1.00
5218;DHT22;26539;51.064;6.346;2022-09-02T12:45:00;38.50;1.00
5218;DHT22;26539;51.064;6.346;2022-09-02T12:50:29;38.20;1.00
5218;DHT22;26539;51.064;6.346;2022-09-02T12:53:09;38.10;1.00
5218;DHT22;26539;51.064;6.346;2022-09-02T12:55:35;38.10;1.00
5218;DHT22;26539;51.064;6.346;2022-09-02T12:58:13;38.20;1.00
5218;DHT22;26539;51.064;6.346;2022-09-02T13:06:35;38.00;1.00
5218;DHT22;26539;51.064;6.346;2022-09-02T13:12:44;37.40;1.00
5218;DHT22;26539;51.064;6.346;2022-09-02T13:18:39;36.20;1.00
5218;DHT22;26539;51.064;6.346;2022-09-02T13:24:05;35.20;1.00
5218;DHT22;26539;51.064;6.346;2022-09-02T13:27:07;35.40;1.00
5218;DHT22;26539;51.064;6.346;2022-09-02T13:32:31;35.50;1.00
5218;DHT22;26539;51.064;6.346;2022-09-02T13:35:01;35.40;1.00
5218;DHT22;26539;51.064;6.346;2022-09-02T13:37:34;35.30;1.00
5218;DHT22;26539;51.064;6.346;2022-09-02T13:40:16;35.50;1.00
5218;DHT22;26539;51.064;6.346;2022-09-02T13:42:47;35.40;1.00
5218;DHT22;26539;51.064;6.346;2022-09-02T13:45:19;35.10;1.00
5218;DHT22;26539;51.064;6.346;2022-09-02T13:47:48;34.90;1.00
5218;DHT22;26539;51.064;6.346;2022-09-02T13:50:17;34.70;1.00
5218;DHT22;26539;51.064;6.346;2022-09-02T13:52:47;34.50;1.00
5218;DHT22;26539;51.064;6.346;2022-09-02T13:55:15;34.50;1.00
5218;DHT22;26539;51.064;6.346;2022-09-02T13:57:51;34.50;1.00
5218;DHT22;26539;51.064;6.346;2022-09-02T14:03:02;34.20;1.00
5218;DHT22;26539;51.064;6.346;2022-09-02T14:05:29;34.20;1.00
5218;DHT22;26539;51.064;6.346;2022-09-02T14:07:59;34.20;1.00
5218;DHT22;26539;51.064;6.346;2022-09-02T14:10:27;34.00;1.00
5218;DHT22;26539;51.064;6.346;2022-09-02T14:12:54;33.80;1.00
5218;DHT22;26539;51.064;6.346;2022-09-02T14:15:29;33.70;1.00
5218;DHT22;26539;51.064;6.346;2022-09-02T14:18:11;33.70;1.00
5218;DHT22;26539;51.064;6.346;2022-09-02T14:20:51;33.60;1.00
5218;DHT22;26539;51.064;6.346;2022-09-02T14:23:18;33.50;1.00
5218;DHT22;26539;51.064;6.346;2022-09-02T14:25:53;33.20;1.00
5218;DHT22;26539;51.064;6.346;2022-09-02T14:28:22;33.20;1.00
5218;DHT22;26539;51.064;6.346;2022-09-02T14:31:05;32.80;1.00
5218;DHT22;26539;51.064;6.346;2022-09-02T14:36:34;32.50;1.00
5218;DHT22;26539;51.064;6.346;2022-09-02T14:39:11;32.40;1.00
5218;DHT22;26539;51.064;6.346;2022-09-02T14:41:46;32.10;1.00
5218;DHT22;26539;51.064;6.346;2022-09-02T14:44:25;31.80;1.00
5218;DHT22;26539;51.064;6.346;2022-09-02T14:46:59;31.50;1.00
5218;DHT22;26539;51.064;6.346;2022-09-02T14:49:28;31.10;1.00
5218;DHT22;26539;51.064;6.346;2022-09-02T14:51:56;31.00;1.00
5218;DHT22;26539;51.064;6.346;2022-09-02T14:54:40;30.80;1.00
5218;DHT22;26539;51.064;6.346;2022-09-02T15:00:05;30.70;1.00
5218;DHT22;26539;51.064;6.346;2022-09-02T15:02:36;30.60;1.00
5218;DHT22;26539;51.064;6.346;2022-09-02T15:05:07;30.60;1.00
5218;DHT22;26539;51.064;6.346;2022-09-02T15:07:33;30.50;1.00
5218;DHT22;26539;51.064;6.346;2022-09-02T15:09:59;30.30;1.00
5218;DHT22;26539;51.064;6.346;2022-09-02T15:12:27;30.10;1.00
5218;DHT22;26539;51.064;6.346;2022-09-02T15:14:54;30.00;1.00
5218;DHT22;26539;51.064;6.346;2022-09-02T15:17:20;29.90;1.00
5218;DHT22;26539;51.064;6.346;2022-09-02T15:19:46;29.90;1.00
5218;DHT22;26539;51.064;6.346;2022-09-02T15:22:13;29.90;1.00
5218;DHT22;26539;51.064;6.346;2022-09-02T15:24:39;30.00;1.00
5218;DHT22;26539;51.064;6.346;2022-09-02T15:27:04;30.00;1.00
5218;DHT22;26539;51.064;6.346;2022-09-02T15:29:30;29.90;1.00
5218;DHT22;26539;51.064;6.346;2022-09-02T15:31:56;29.90;1.00
5218;DHT22;26539;51.064;6.346;2022-09-02T15:34:22;29.80;1.00
5218;DHT22;26539;51.064;6.346;2022-09-02T15:36:47;29.70;1.00
5218;DHT22;26539;51.064;6.346;2022-09-02T15:39:13;29.70;1.00
5218;DHT22;26539;51.064;6.346;2022-09-02T15:41:42;29.60;1.00
5218;DHT22;26539;51.064;6.346;2022-09-02T15:44:07;29.50;1.00
5218;DHT22;26539;51.064;6.346;2022-09-02T15:46:34;29.30;1.00
5218;DHT22;26539;51.064;6.346;2022-09-02T15:49:03;29.30;1.00
5218;DHT22;26539;51.064;6.346;2022-09-02T15:51:30;29.30;1.00
5218;DHT22;26539;51.064;6.346;2022-09-02T15:53:57;29.30;1.00
5218;DHT22;26539;51.064;6.346;2022-09-02T15:56:25;29.40;1.00
5218;DHT22;26539;51.064;6.346;2022-09-02T15:58:55;29.30;1.00
5218;DHT22;26539;51.064;6.346;2022-09-02T16:01:26;29.30;1.00
5218;DHT22;26539;51.064;6.346;2022-09-02T16:03:52;29.20;1.00
5218;DHT22;26539;51.064;6.346;2022-09-02T16:06:18;29.00;1.00
5218;DHT22;26539;51.064;6.346;2022-09-02T16:08:43;28.90;1.00
5218;DHT22;26539;51.064;6.346;2022-09-02T16:11:09;28.80;1.00
5218;DHT22;26539;51.064;6.346;2022-09-02T16:13:35;28.80;1.00
5218;DHT22;26539;51.064;6.346;2022-09-02T16:16:04;28.80;1.00
5218;DHT22;26539;51.064;6.346;2022-09-02T16:18:30;28.70;1.00
5218;DHT22;26539;51.064;6.346;2022-09-02T16:20:55;28.70;1.00
5218;DHT22;26539;51.064;6.346;2022-09-02T16:23:21;28.70;1.00
5218;DHT22;26539;51.064;6.346;2022-09-02T16:25:47;28.70;1.00
5218;DHT22;26539;51.064;6.346;2022-09-02T16:28:12;28.60;1.00
5218;DHT22;26539;51.064;6.346;2022-09-02T16:30:39;28.50;1.00
5218;DHT22;26539;51.064;6.346;2022-09-02T16:33:05;28.50;1.00
5218;DHT22;26539;51.064;6.346;2022-09-02T16:35:30;28.40;1.00
5218;DHT22;26539;51.064;6.346;2022-09-02T16:37:56;28.30;1.00
5218;DHT22;26539;51.064;6.346;2022-09-02T16:40:22;28.20;1.00
5218;DHT22;26539;51.064;6.346;2022-09-02T16:42:48;28.10;1.00
5218;DHT22;26539;51.064;6.346;2022-09-02T16:45:14;28.00;1.00
5218;DHT22;26539;51.064;6.346;2022-09-02T16:47:40;28.00;1.00
5218;DHT22;26539;51.064;6.346;2022-09-02T16:50:05;27.90;1.00
5218;DHT22;26539;51.064;6.346;2022-09-02T16:52:31;27.80;1.00
5218;DHT22;26539;51.064;6.346;2022-09-02T16:54:59;27.80;1.00
5218;DHT22;26539;51.064;6.346;2022-09-02T16:57:24;27.70;1.00
5218;DHT22;26539;51.064;6.346;2022-09-02T16:59:50;27.60;1.00
5218;DHT22;26539;51.064;6.346;2022-09-02T17:02:16;27.60;1.00
5218;DHT22;26539;51.064;6.346;2022-09-02T17:04:41;27.60;1.00
5218;DHT22;26539;51.064;6.346;2022-09-02T17:07:07;27.50;1.00
5218;DHT22;26539;51.064;6.346;2022-09-02T17:09:39;27.50;1.00
5218;DHT22;26539;51.064;6.346;2022-09-02T17:12:04;27.40;1.00
5218;DHT22;26539;51.064;6.346;2022-09-02T17:14:30;27.30;1.00
5218;DHT22;26539;51.064;6.346;2022-09-02T17:16:55;27.10;1.00
5218;DHT22;26539;51.064;6.346;2022-09-02T17:19:21;27.00;1.00
5218;DHT22;26539;51.064;6.346;2022-09-02T17:21:51;27.00;1.00
5218;DHT22;26539;51.064;6.346;2022-09-02T17:24:18;26.90;1.00
5218;DHT22;26539;51.064;6.346;2022-09-02T17:26:46;26.80;1.00
5218;DHT22;26539;51.064;6.346;2022-09-02T17:29:18;26.70;1.00
5218;DHT22;26539;51.064;6.346;2022-09-02T17:31:44;26.60;1.00
5218;DHT22;26539;51.064;6.346;2022-09-02T17:34:11;26.50;1.00
5218;DHT22;26539;51.064;6.346;2022-09-02T17:36:38;26.40;1.00
5218;DHT22;26539;51.064;6.346;2022-09-02T17:39:07;26.30;1.00
5218;DHT22;26539;51.064;6.346;2022-09-02T17:41:33;26.20;1.00
5218;DHT22;26539;51.064;6.346;2022-09-02T17:44:17;26.00;1.00
5218;DHT22;26539;51.064;6.346;2022-09-02T17:46:43;26.00;1.00
5218;DHT22;26539;51.064;6.346;2022-09-02T17:49:10;25.80;1.00
5218;DHT22;26539;51.064;6.346;2022-09-02T17:51:36;25.70;1.00
5218;DHT22;26539;51.064;6.346;2022-09-02T17:54:02;25.70;1.00
5218;DHT22;26539;51.064;6.346;2022-09-02T17:59:18;25.40;1.00
5218;DHT22;26539;51.064;6.346;2022-09-02T18:07:57;25.10;1.00
5218;DHT22;26539;51.064;6.346;2022-09-02T18:10:53;24.90;1.00
5218;DHT22;26539;51.064;6.346;2022-09-02T18:13:31;24.80;1.00
5218;DHT22;26539;51.064;6.346;2022-09-02T18:19:28;24.60;1.00
5218;DHT22;26539;51.064;6.346;2022-09-02T18:30:40;24.10;1.00